Latest Coastal Weather Observations for Hindmarsh Island

IDS60701

Issued at 3:41 am CST Wednesday 27 September 2017 (issued every 10 minutes, with the page automatically refreshed every 10 minutes)

About coastal observations | Map of coastal stations | Coastal observations for SA | Marine services | Other Formats
Station Details ID: 023894 Name: HINDMARSH ISLAND AWS Lat: -35.52 Lon: 138.82 Height: 11.0 m
Data from the previous 72 hours. | See also: Recent months at Hindmarsh Island
Date/Time
CST
Temp
°C
Wind Pressure Rain since
9am
mm
Weather Cloud Vis
km
Sea
Height
m
Swell
Dir  Spd
kts
Gust
kts
hPa Trend Height
m
Period
s
Dir
27/03:30am 14.7 NNW 1 4 1004.6 - 0.0 - - - - - - -
27/03:00am 14.2 E 6 7 1004.2 - 0.0 - - - - - - -
27/02:30am 15.2 NE 4 5 1005.2 - 0.0 - - - - - - -
27/02:00am 16.2 SSE 4 5 1005.4 - 0.0 - - - - - - -
27/01:30am 16.9 SE 6 12 1005.4 - 0.0 - - - - - - -
27/01:00am 17.1 NE 11 14 1005.3 - 0.0 - - - - - - -
27/12:30am 16.8 NNE 10 16 1005.7 - 0.0 - - - - - - -
27/12:00am 16.9 NE 12 16 1005.3 - 0.0 - - - - - - -
 
Date/Time
CST
Temp
°C
Wind Pressure Rain since
9am
mm
Weather Cloud Vis
km
Sea
Height
m
Swell
Dir  Spd
kts
Gust
kts
hPa Trend Height
m
Period
s
Dir
26/11:30pm 17.2 NE 15 19 1005.3 - 0.0 - - - - - - -
26/11:00pm 16.2 NNE 15 20 1005.7 - 0.0 - - - - - - -
26/10:30pm 16.4 NNE 13 17 1005.8 - 0.0 - - - - - - -
26/10:00pm 16.6 NE 13 17 1006.4 - 0.0 - - - - - - -
26/09:30pm 15.4 NNE 11 13 1006.9 - 0.0 - - - - - - -
26/09:00pm 15.3 NNE 11 12 1007.2 - 0.0 - - - - - - -
26/08:30pm 16.5 NNE 9 12 1007.4 - 0.0 - - - - - - -
26/08:00pm 14.7 ENE 9 10 1007.2 - 0.0 - - - - - - -
26/07:30pm 15.5 E 9 10 1007.3 - 0.0 - - - - - - -
26/07:00pm 16.3 E 7 9 1007.5 - 0.0 - - - - - - -
26/06:30pm 17.7 ENE 8 10 1007.6 - 0.0 - - - - - - -
26/06:00pm 17.8 ENE 9 11 1007.9 - 0.0 - - - - - - -
26/05:30pm 19.0 ENE 9 11 1008.6 - 0.0 - - - - - - -
26/05:00pm 19.9 ENE 11 13 1008.9 - 0.0 - - - - - - -
26/04:30pm 19.8 E 11 15 1008.4 - 0.0 - - - - - - -
26/04:00pm 20.0 E 15 18 1008.2 - 0.0 - - - - - - -
26/03:30pm 19.7 E 13 17 1009.3 - 0.0 - - - - - - -
26/03:00pm 20.0 ENE 14 18 1009.7 - 0.0 - - - - - - -
26/02:30pm 21.5 ENE 13 18 1010.3 - 0.0 - - - - - - -
26/02:00pm 20.2 NE 15 20 1011.3 - 0.0 - - - - - - -
26/01:30pm 20.9 ENE 13 21 1012.1 - 0.0 - - - - - - -
26/01:00pm 20.0 NE 12 16 1012.6 - 0.0 - - - - - - -
26/12:30pm 18.1 NE 16 23 1013.1 - 0.0 - - - - - - -
26/12:00pm 17.4 ENE 13 19 1013.6 - 0.0 - - - - - - -
26/11:30am 16.2 ENE 14 19 1013.8 - 0.0 - - - - - - -
26/11:00am 15.1 ENE 12 17 1014.6 - 0.0 - - - - - - -
26/10:30am 14.7 NE 12 17 1015.2 - 0.0 - - - - - - -
26/10:00am 14.7 ENE 14 18 1015.8 - 0.0 - - - - - - -
26/09:30am 14.1 NE 15 20 1016.0 - 0.0 - - - - - - -
26/09:00am 12.7 NE 14 18 1016.5 - 0.0 - - - - - - -
26/08:30am 11.1 NE 12 16 1017.0 - 0.0 - - - - - - -
26/08:00am 9.3 NNE 13 16 1017.4 - 0.0 - - - - - - -
26/07:30am 9.1 NNE 12 16 1017.3 - 0.0 - - - - - - -
26/07:00am 8.3 NE 11 15 1016.6 - 0.0 - - - - - - -
26/06:30am 7.6 NNE 11 14 1016.6 - 0.0 - - - - - - -
26/06:00am 7.3 NNE 10 13 1016.5 - 0.0 - - - - - - -
26/05:30am 7.2 NNE 10 12 1016.1 - 0.0 - - - - - - -
26/05:00am 7.1 NE 8 9 1015.5 - 0.0 - - - - - - -
26/04:30am 7.2 NE 11 13 1015.0 - 0.0 - - - - - - -
26/04:00am 7.9 NNE 9 13 1015.9 - 0.0 - - - - - - -
26/03:30am 8.3 NNE 9 11 1015.8 - 0.0 - - - - - - -
26/03:00am 8.3 NNE 7 9 1016.0 - 0.0 - - - - - - -
26/02:30am 8.5 N 7 8 1016.4 - 0.0 - - - - - - -
26/02:00am 9.0 N 6 8 1016.5 - 0.0 - - - - - - -
26/01:30am 8.5 ENE 7 8 1016.6 - 0.0 - - - - - - -
26/01:00am 9.6 NNE 7 8 1016.9 - 0.0 - - - - - - -
26/12:30am 8.5 ENE 9 9 1016.8 - 0.0 - - - - - - -
26/12:00am 9.0 E 7 8 1016.8 - 0.0 - - - - - - -
 
Date/Time
CST
Temp
°C
Wind Pressure Rain since
9am
mm
Weather Cloud Vis
km
Sea
Height
m
Swell
Dir  Spd
kts
Gust
kts
hPa Trend Height
m
Period
s
Dir
25/11:30pm 9.1 E 7 8 1016.8 - 0.0 - - - - - - -
25/11:00pm 10.0 E 6 7 1016.9 - 0.0 - - - - - - -
25/10:30pm 10.0 ESE 6 7 1017.0 - 0.0 - - - - - - -
25/10:00pm 10.9 ESE 6 7 1016.9 - 0.0 - - - - - - -
25/09:30pm 12.2 SE 7 8 1016.8 - 0.0 - - - - - - -
25/09:00pm 12.2 SE 7 9 1016.7 - 0.0 - - - - - - -
25/08:30pm 12.4 SSE 9 11 1016.5 - 0.0 - - - - - - -
25/08:00pm 12.4 SSE 8 11 1016.1 - 0.0 - - - - - - -
25/07:30pm 12.6 S 10 11 1015.6 - 0.0 - - - - - - -
25/07:00pm 12.6 S 10 12 1015.2 - 0.0 - - - - - - -
25/06:30pm 12.8 S 12 14 1014.9 - 0.0 - - - - - - -
25/06:00pm 13.0 S 13 15 1014.7 - 0.0 - - - - - - -
25/05:30pm 13.6 S 12 14 1014.6 - 0.0 - - - - - - -
25/05:00pm 14.1 S 11 14 1014.4 - 0.0 - - - - - - -
25/04:30pm 14.7 SSW 13 15 1014.2 - 0.0 - - - - - - -
25/04:00pm 14.9 SSW 15 18 1013.9 - 0.0 - - - - - - -
25/03:30pm 15.6 SSW 14 17 1013.8 - 0.0 - - - - - - -
25/03:00pm 15.6 SSW 15 18 1013.8 - 0.0 - - - - - - -
25/02:30pm 15.8 SSW 15 18 1013.7 - 0.0 - - - - - - -
25/02:00pm 16.4 SW 15 18 1013.9 - 0.0 - - - - - - -
25/01:30pm 17.0 SW 13 17 1013.8 - 0.0 - - - - - - -
25/01:00pm 16.3 SW 13 16 1013.8 - 0.0 - - - - - - -
25/12:30pm 16.6 SW 10 13 1014.0 - 0.0 - - - - - - -
25/12:00pm 14.9 SW 11 14 1014.0 - 0.0 - - - - - - -
25/11:30am 15.4 SW 13 16 1013.9 - 0.0 - - - - - - -
25/11:00am 15.5 SSW 12 15 1013.7 - 0.0 - - - - - - -
25/10:30am 16.0 SW 12 14 1013.7 - 0.0 - - - - - - -
25/10:00am 15.5 SW 13 17 1013.5 - 0.0 - - - - - - -
25/09:30am 15.5 SW 9 11 1013.5 - 0.0 - - - - - - -
25/09:00am 15.0 WSW 10 13 1013.2 - 0.2 - - - - - - -
25/08:30am 14.4 WSW 10 13 1012.5 - 0.2 - - - - - - -
25/08:00am 13.6 WSW 11 15 1011.9 - 0.2 - - - - - - -
25/07:30am 12.8 WSW 11 15 1011.4 - 0.2 - - - - - - -
25/07:00am 12.1 W 11 15 1010.9 - 0.2 - - - - - - -
25/06:30am 11.4 W 9 11 1010.6 - 0.2 - - - - - - -
25/06:00am 11.1 WSW 7 9 1010.2 - 0.2 - - - - - - -
25/05:30am 11.4 W 7 11 1009.9 - 0.2 - - - - - - -
25/05:00am 11.6 W 12 15 1009.5 - 0.2 - - - - - - -
25/04:30am 11.9 W 12 17 1009.3 - 0.2 - - - - - - -
25/04:00am 11.9 W 13 16 1009.0 - 0.2 - - - - - - -
25/03:30am 12.0 W 13 17 1008.8 - 0.2 - - - - - - -
25/03:00am 12.2 W 13 16 1008.5 - 0.2 - - - - - - -
25/02:30am 12.2 WNW 13 18 1008.5 - 0.2 - - - - - - -
25/02:00am 12.1 W 13 17 1008.3 - 0.2 - - - - - - -
25/01:30am 12.3 W 14 17 1008.5 - 0.2 - - - - - - -
25/01:00am 12.4 W 14 20 1008.7 - 0.2 - - - - - - -
25/12:30am 12.2 W 10 13 1008.8 - 0.2 - - - - - - -
25/12:00am 12.3 W 11 15 1008.8 - 0.2 - - - - - - -
 
Date/Time
CST
Temp
°C
Wind Pressure Rain since
9am
mm
Weather Cloud Vis
km
Sea
Height
m
Swell
Dir  Spd
kts
Gust
kts
hPa Trend Height
m
Period
s
Dir
24/11:30pm 12.3 W 11 16 1008.8 - 0.2 - - - - - - -
24/11:00pm 12.2 W 12 16 1008.9 - 0.2 - - - - - - -
24/10:30pm 12.3 WNW 14 21 1008.8 - 0.2 - - - - - - -
24/10:00pm 12.6 WNW 12 19 1008.7 - 0.2 - - - - - - -
24/09:30pm 12.6 WNW 15 23 1008.3 - 0.2 - - - - - - -
24/09:18pm 12.5 WNW 16 26 1008.4 - 0.2 - - - - - - -
24/09:00pm 12.9 WNW 18 26 1008.3 - 0.2 - - - - - - -
24/08:30pm 13.0 WNW 15 23 1007.7 - 0.2 - - - - - - -
24/08:00pm 13.0 WNW 17 23 1007.4 - 0.2 - - - - - - -
24/07:30pm 12.9 WNW 16 25 1006.8 - 0.2 - - - - - - -
24/07:04pm 12.9 WNW 20 30 1006.6 - 0.2 - - - - - - -
24/07:00pm 13.0 WNW 21 30 1006.4 - 0.2 - - - - - - -
24/06:52pm 12.9 WNW 15 27 1006.4 - 0.2 - - - - - - -
24/06:30pm 12.8 WNW 16 23 1006.2 - 0.2 - - - - - - -
24/06:12pm 12.8 W 19 29 1006.1 - 0.2 - - - - - - -
24/06:00pm 13.3 WNW 18 26 1005.7 - 0.0 - - - - - - -
24/05:30pm 13.5 W 21 27 1005.3 - 0.0 - - - - - - -
24/05:18pm 13.8 W 23 33 1005.0 - 0.0 - - - - - - -
24/05:00pm 15.4 W 22 29 1004.6 - 0.0 - - - - - - -
24/04:30pm 15.1 W 22 32 1004.2 - 0.0 - - - - - - -
24/04:00pm 16.0 WNW 20 32 1003.5 - 0.0 - - - - - - -
24/03:30pm 16.5 WNW 23 35 1003.3 - 0.0 - - - - - - -
24/03:00pm 16.9 WNW 24 36 1003.0 - 0.0 - - - - - - -
24/02:30pm 17.1 WNW 25 37 1003.2 - 0.0 - - - - - - -
24/02:00pm 17.0 WNW 23 33 1003.2 - 0.0 - - - - - - -
24/01:30pm 16.8 WNW 26 36 1003.2 - 0.0 - - - - - - -
24/01:00pm 16.4 WNW 24 35 1003.0 - 0.0 - - - - - - -
24/12:30pm 17.0 WNW 21 32 1002.9 - 0.0 - - - - - - -
24/12:00pm 16.4 WNW 23 34 1002.8 - 0.0 - - - - - - -
24/11:31am 16.3 WNW 23 33 1002.8 - 0.0 - - - - - - -
24/11:30am 16.2 WNW 22 31 1002.8 - 0.0 - - - - - - -
24/11:06am 16.7 WNW 22 32 1002.8 - 0.0 - - - - - - -
24/11:00am 16.5 WNW 23 32 1002.7 - 0.0 - - - - - - -
24/10:31am 14.9 W 23 33 1002.8 - 0.0 - - - - - - -
24/10:30am 15.0 W 24 33 1002.9 - 0.0 - - - - - - -
24/10:00am 15.5 WNW 21 33 1002.8 - 0.0 - - - - - - -
24/09:30am 15.9 WNW 23 34 1002.8 - 0.0 - - - - - - -
24/09:06am 15.3 WNW 23 33 1002.7 - 0.0 - - - - - - -
24/09:00am 15.3 WNW 23 32 1002.6 - 1.0 - - - - - - -
24/08:30am 15.2 WNW 21 31 1002.3 - 1.0 - - - - - - -
24/08:14am 14.8 WNW 21 31 1002.2 - 1.0 - - - - - - -
24/08:00am 14.6 WNW 20 27 1002.4 - 1.0 - - - - - - -
24/07:31am 14.1 WNW 20 30 1002.0 - 1.0 - - - - - - -
24/07:30am 14.2 WNW 19 28 1002.0 - 1.0 - - - - - - -
24/07:00am 13.4 NW 17 27 1001.6 - 1.0 - - - - - - -
24/06:55am 13.1 WNW 15 27 1001.5 - 1.0 - - - - - - -
24/06:30am 13.1 WNW 16 25 1001.7 - 1.0 - - - - - - -
24/06:18am 13.1 WNW 17 27 1001.5 - 1.0 - - - - - - -
24/06:00am 13.1 WNW 16 24 1001.4 - 1.0 - - - - - - -
24/05:30am 13.1 WNW 16 23 1001.1 - 1.0 - - - - - - -
24/05:01am 13.3 WNW 16 26 1000.6 - 1.0 - - - - - - -
24/05:00am 13.4 WNW 17 26 1000.6 - 1.0 - - - - - - -
24/04:30am 13.7 WNW 23 33 1000.5 - 1.0 - - - - - - -
24/04:09am 13.4 WNW 17 27 1000.5 - 1.0 - - - - - - -
24/04:00am 13.6 WNW 18 27 1000.3 - 1.0 - - - - - - -

Other Formats:

Comma delimited format used in spreadsheet applications
http://www.bom.gov.au/fwo/IDS60701/IDS60701.94677.axf

JavaScript Object Notation format (JSON) in row-major order
http://www.bom.gov.au/fwo/IDS60701/IDS60701.94677.json